sensor_id;sensor_type;location;lat;lon;timestamp;temperature;humidity
14962;DHT22;56489;53.166;10.864;2022-07-23T00:00:13;17.10;99.90
14962;DHT22;56489;53.166;10.864;2022-07-23T00:02:40;17.10;99.90
14962;DHT22;56489;53.166;10.864;2022-07-23T00:05:07;17.10;99.90
14962;DHT22;56489;53.166;10.864;2022-07-23T00:07:34;17.00;99.90
14962;DHT22;56489;53.166;10.864;2022-07-23T00:10:00;17.00;99.90
14962;DHT22;56489;53.166;10.864;2022-07-23T00:12:27;17.00;99.90
14962;DHT22;56489;53.166;10.864;2022-07-23T00:14:54;17.00;99.90
14962;DHT22;56489;53.166;10.864;2022-07-23T00:17:20;16.90;99.90
14962;DHT22;56489;53.166;10.864;2022-07-23T00:19:47;16.90;99.90
14962;DHT22;56489;53.166;10.864;2022-07-23T00:22:14;16.90;99.90
14962;DHT22;56489;53.166;10.864;2022-07-23T00:24:40;16.90;99.90
14962;DHT22;56489;53.166;10.864;2022-07-23T00:27:07;16.90;99.90
14962;DHT22;56489;53.166;10.864;2022-07-23T00:29:33;16.90;99.90
14962;DHT22;56489;53.166;10.864;2022-07-23T00:32:00;16.90;99.90
14962;DHT22;56489;53.166;10.864;2022-07-23T00:34:26;16.90;99.90
14962;DHT22;56489;53.166;10.864;2022-07-23T00:36:53;16.90;99.90
14962;DHT22;56489;53.166;10.864;2022-07-23T00:39:20;16.90;99.90
14962;DHT22;56489;53.166;10.864;2022-07-23T00:41:50;16.90;99.90
14962;DHT22;56489;53.166;10.864;2022-07-23T00:44:23;16.80;99.90
14962;DHT22;56489;53.166;10.864;2022-07-23T00:46:53;16.80;99.90
14962;DHT22;56489;53.166;10.864;2022-07-23T00:49:21;16.80;99.90
14962;DHT22;56489;53.166;10.864;2022-07-23T00:51:48;16.70;99.90
14962;DHT22;56489;53.166;10.864;2022-07-23T00:54:19;16.70;99.90
14962;DHT22;56489;53.166;10.864;2022-07-23T00:56:46;16.60;99.90
14962;DHT22;56489;53.166;10.864;2022-07-23T00:59:13;16.40;99.90
14962;DHT22;56489;53.166;10.864;2022-07-23T01:01:41;16.30;99.90
14962;DHT22;56489;53.166;10.864;2022-07-23T01:04:08;16.20;99.90
14962;DHT22;56489;53.166;10.864;2022-07-23T01:06:37;16.10;99.90
14962;DHT22;56489;53.166;10.864;2022-07-23T01:09:05;16.10;99.90
14962;DHT22;56489;53.166;10.864;2022-07-23T01:11:34;16.00;99.90
14962;DHT22;56489;53.166;10.864;2022-07-23T01:14:09;16.00;99.90
14962;DHT22;56489;53.166;10.864;2022-07-23T01:16:36;15.90;99.90
14962;DHT22;56489;53.166;10.864;2022-07-23T01:19:02;15.90;99.90
14962;DHT22;56489;53.166;10.864;2022-07-23T01:21:37;15.90;99.90
14962;DHT22;56489;53.166;10.864;2022-07-23T01:24:04;15.90;99.90
14962;DHT22;56489;53.166;10.864;2022-07-23T01:26:31;15.90;99.90
14962;DHT22;56489;53.166;10.864;2022-07-23T01:28:58;15.80;99.90
14962;DHT22;56489;53.166;10.864;2022-07-23T01:31:25;15.70;99.90
14962;DHT22;56489;53.166;10.864;2022-07-23T01:33:57;15.70;99.90
14962;DHT22;56489;53.166;10.864;2022-07-23T01:36:26;15.60;99.90
14962;DHT22;56489;53.166;10.864;2022-07-23T01:38:52;15.60;99.90
14962;DHT22;56489;53.166;10.864;2022-07-23T01:41:19;15.50;99.90
14962;DHT22;56489;53.166;10.864;2022-07-23T01:43:46;15.50;99.90
14962;DHT22;56489;53.166;10.864;2022-07-23T01:46:13;15.40;99.90
14962;DHT22;56489;53.166;10.864;2022-07-23T01:48:42;15.30;99.90
14962;DHT22;56489;53.166;10.864;2022-07-23T01:51:09;15.20;99.90
14962;DHT22;56489;53.166;10.864;2022-07-23T01:53:36;15.10;99.90
14962;DHT22;56489;53.166;10.864;2022-07-23T01:56:03;15.00;99.90
14962;DHT22;56489;53.166;10.864;2022-07-23T01:58:30;14.90;99.90
14962;DHT22;56489;53.166;10.864;2022-07-23T02:00:56;14.80;99.90
14962;DHT22;56489;53.166;10.864;2022-07-23T02:03:23;14.80;99.90
14962;DHT22;56489;53.166;10.864;2022-07-23T02:05:50;14.70;99.90
14962;DHT22;56489;53.166;10.864;2022-07-23T02:08:17;14.60;99.90
14962;DHT22;56489;53.166;10.864;2022-07-23T02:10:44;14.60;99.90
14962;DHT22;56489;53.166;10.864;2022-07-23T02:13:12;14.50;99.90
14962;DHT22;56489;53.166;10.864;2022-07-23T02:15:46;14.40;99.90
14962;DHT22;56489;53.166;10.864;2022-07-23T02:18:12;14.40;99.90
14962;DHT22;56489;53.166;10.864;2022-07-23T02:20:39;14.40;99.90
14962;DHT22;56489;53.166;10.864;2022-07-23T02:23:06;14.30;99.90
14962;DHT22;56489;53.166;10.864;2022-07-23T02:25:34;14.30;99.90
14962;DHT22;56489;53.166;10.864;2022-07-23T02:28:00;14.20;99.90
14962;DHT22;56489;53.166;10.864;2022-07-23T02:30:27;14.20;99.90
14962;DHT22;56489;53.166;10.864;2022-07-23T02:32:54;14.00;99.90
14962;DHT22;56489;53.166;10.864;2022-07-23T02:35:21;13.90;99.90
14962;DHT22;56489;53.166;10.864;2022-07-23T02:37:47;13.70;99.90
14962;DHT22;56489;53.166;10.864;2022-07-23T02:40:16;13.60;99.90
14962;DHT22;56489;53.166;10.864;2022-07-23T02:42:43;13.50;99.90
14962;DHT22;56489;53.166;10.864;2022-07-23T02:45:10;13.50;99.90
14962;DHT22;56489;53.166;10.864;2022-07-23T02:47:36;13.40;99.90
14962;DHT22;56489;53.166;10.864;2022-07-23T02:50:04;13.40;99.90
14962;DHT22;56489;53.166;10.864;2022-07-23T02:52:31;13.30;99.90
14962;DHT22;56489;53.166;10.864;2022-07-23T02:54:58;13.30;99.90
14962;DHT22;56489;53.166;10.864;2022-07-23T02:57:24;13.30;99.90
14962;DHT22;56489;53.166;10.864;2022-07-23T02:59:51;13.30;99.90
14962;DHT22;56489;53.166;10.864;2022-07-23T03:02:18;13.30;99.90
14962;DHT22;56489;53.166;10.864;2022-07-23T03:04:44;13.20;99.90
14962;DHT22;56489;53.166;10.864;2022-07-23T03:07:11;13.10;99.90
14962;DHT22;56489;53.166;10.864;2022-07-23T03:09:37;13.10;99.90
14962;DHT22;56489;53.166;10.864;2022-07-23T03:12:04;13.10;99.90
14962;DHT22;56489;53.166;10.864;2022-07-23T03:14:38;13.00;99.90
14962;DHT22;56489;53.166;10.864;2022-07-23T03:17:05;12.90;99.90
14962;DHT22;56489;53.166;10.864;2022-07-23T03:19:32;12.80;99.90
14962;DHT22;56489;53.166;10.864;2022-07-23T03:21:58;12.60;99.90
14962;DHT22;56489;53.166;10.864;2022-07-23T03:24:25;12.60;99.90
14962;DHT22;56489;53.166;10.864;2022-07-23T03:27:11;12.60;99.90
14962;DHT22;56489;53.166;10.864;2022-07-23T03:29:38;12.50;99.90
14962;DHT22;56489;53.166;10.864;2022-07-23T03:32:05;12.50;99.90
14962;DHT22;56489;53.166;10.864;2022-07-23T03:34:31;12.50;99.90
14962;DHT22;56489;53.166;10.864;2022-07-23T03:36:58;12.50;99.90
14962;DHT22;56489;53.166;10.864;2022-07-23T03:39:28;12.50;99.90
14962;DHT22;56489;53.166;10.864;2022-07-23T03:41:55;12.50;99.90
14962;DHT22;56489;53.166;10.864;2022-07-23T03:44:21;12.40;99.90
14962;DHT22;56489;53.166;10.864;2022-07-23T03:46:48;12.30;99.90
14962;DHT22;56489;53.166;10.864;2022-07-23T03:49:15;12.30;99.90
14962;DHT22;56489;53.166;10.864;2022-07-23T03:51:41;12.30;99.90
14962;DHT22;56489;53.166;10.864;2022-07-23T03:54:08;12.30;99.90
14962;DHT22;56489;53.166;10.864;2022-07-23T03:56:35;12.40;99.90
14962;DHT22;56489;53.166;10.864;2022-07-23T03:59:02;12.50;99.90
14962;DHT22;56489;53.166;10.864;2022-07-23T04:01:29;12.60;99.90
14962;DHT22;56489;53.166;10.864;2022-07-23T04:03:56;12.70;99.90
14962;DHT22;56489;53.166;10.864;2022-07-23T04:06:23;12.80;99.90
14962;DHT22;56489;53.166;10.864;2022-07-23T04:08:49;12.90;99.90
14962;DHT22;56489;53.166;10.864;2022-07-23T04:11:16;13.00;99.90
14962;DHT22;56489;53.166;10.864;2022-07-23T04:13:43;13.20;99.90
14962;DHT22;56489;53.166;10.864;2022-07-23T04:16:09;13.40;99.90
14962;DHT22;56489;53.166;10.864;2022-07-23T04:18:36;13.50;99.90
14962;DHT22;56489;53.166;10.864;2022-07-23T04:21:03;13.60;99.90
14962;DHT22;56489;53.166;10.864;2022-07-23T04:23:29;13.80;99.90
14962;DHT22;56489;53.166;10.864;2022-07-23T04:25:56;13.90;99.90
14962;DHT22;56489;53.166;10.864;2022-07-23T04:28:23;14.10;99.90
14962;DHT22;56489;53.166;10.864;2022-07-23T04:30:50;14.30;99.90
14962;DHT22;56489;53.166;10.864;2022-07-23T04:33:16;14.40;99.90
14962;DHT22;56489;53.166;10.864;2022-07-23T04:35:43;14.60;99.90
14962;DHT22;56489;53.166;10.864;2022-07-23T04:38:10;14.60;99.90
14962;DHT22;56489;53.166;10.864;2022-07-23T04:40:36;14.70;99.90
14962;DHT22;56489;53.166;10.864;2022-07-23T04:43:03;14.70;99.90
14962;DHT22;56489;53.166;10.864;2022-07-23T04:45:29;14.80;99.90
14962;DHT22;56489;53.166;10.864;2022-07-23T04:47:56;14.80;99.90
14962;DHT22;56489;53.166;10.864;2022-07-23T04:50:23;14.80;99.90
14962;DHT22;56489;53.166;10.864;2022-07-23T04:52:51;14.80;99.90
14962;DHT22;56489;53.166;10.864;2022-07-23T04:55:17;14.70;99.90
14962;DHT22;56489;53.166;10.864;2022-07-23T04:57:44;14.70;99.90
14962;DHT22;56489;53.166;10.864;2022-07-23T05:00:11;14.70;99.90
14962;DHT22;56489;53.166;10.864;2022-07-23T05:02:37;14.80;99.90
14962;DHT22;56489;53.166;10.864;2022-07-23T05:05:04;14.80;99.90
14962;DHT22;56489;53.166;10.864;2022-07-23T05:07:31;14.80;99.90
14962;DHT22;56489;53.166;10.864;2022-07-23T05:09:58;14.80;99.90
14962;DHT22;56489;53.166;10.864;2022-07-23T05:12:24;14.80;99.90
14962;DHT22;56489;53.166;10.864;2022-07-23T05:14:51;14.80;99.90
14962;DHT22;56489;53.166;10.864;2022-07-23T05:17:19;14.80;99.90
14962;DHT22;56489;53.166;10.864;2022-07-23T05:19:45;14.70;99.90
14962;DHT22;56489;53.166;10.864;2022-07-23T05:22:12;14.70;99.90
14962;DHT22;56489;53.166;10.864;2022-07-23T05:24:38;14.70;99.90
14962;DHT22;56489;53.166;10.864;2022-07-23T05:27:05;14.80;99.90
14962;DHT22;56489;53.166;10.864;2022-07-23T05:29:32;14.90;99.90
14962;DHT22;56489;53.166;10.864;2022-07-23T05:31:58;14.90;99.90
14962;DHT22;56489;53.166;10.864;2022-07-23T05:34:25;15.00;99.90
14962;DHT22;56489;53.166;10.864;2022-07-23T05:36:51;15.10;99.90
14962;DHT22;56489;53.166;10.864;2022-07-23T05:39:18;15.20;99.90
14962;DHT22;56489;53.166;10.864;2022-07-23T05:41:44;15.30;99.90
14962;DHT22;56489;53.166;10.864;2022-07-23T05:44:11;15.50;99.90
14962;DHT22;56489;53.166;10.864;2022-07-23T05:46:38;15.60;99.90
14962;DHT22;56489;53.166;10.864;2022-07-23T05:49:05;15.80;99.90
14962;DHT22;56489;53.166;10.864;2022-07-23T05:51:32;15.80;99.90
14962;DHT22;56489;53.166;10.864;2022-07-23T05:53:59;15.90;99.90
14962;DHT22;56489;53.166;10.864;2022-07-23T05:56:26;16.00;99.90
14962;DHT22;56489;53.166;10.864;2022-07-23T05:58:52;16.10;99.90
14962;DHT22;56489;53.166;10.864;2022-07-23T06:01:19;16.30;99.90
14962;DHT22;56489;53.166;10.864;2022-07-23T06:03:46;16.50;99.90
14962;DHT22;56489;53.166;10.864;2022-07-23T06:06:12;16.70;99.90
14962;DHT22;56489;53.166;10.864;2022-07-23T06:08:39;16.90;99.90
14962;DHT22;56489;53.166;10.864;2022-07-23T06:11:05;17.10;99.90
14962;DHT22;56489;53.166;10.864;2022-07-23T06:13:32;17.30;99.90
14962;DHT22;56489;53.166;10.864;2022-07-23T06:15:59;17.60;99.90
14962;DHT22;56489;53.166;10.864;2022-07-23T06:18:25;18.00;99.90
14962;DHT22;56489;53.166;10.864;2022-07-23T06:20:52;18.30;99.90
14962;DHT22;56489;53.166;10.864;2022-07-23T06:23:25;18.40;99.90
14962;DHT22;56489;53.166;10.864;2022-07-23T06:25:52;18.40;99.90
14962;DHT22;56489;53.166;10.864;2022-07-23T06:28:19;18.40;99.90
14962;DHT22;56489;53.166;10.864;2022-07-23T06:30:45;18.40;99.90
14962;DHT22;56489;53.166;10.864;2022-07-23T06:33:12;18.30;99.90
14962;DHT22;56489;53.166;10.864;2022-07-23T06:35:39;18.30;99.90
14962;DHT22;56489;53.166;10.864;2022-07-23T06:38:05;18.60;99.90
14962;DHT22;56489;53.166;10.864;2022-07-23T06:40:33;19.20;99.90
14962;DHT22;56489;53.166;10.864;2022-07-23T06:43:00;20.00;99.90
14962;DHT22;56489;53.166;10.864;2022-07-23T06:45:26;20.70;99.90
14962;DHT22;56489;53.166;10.864;2022-07-23T06:47:53;21.00;99.90
14962;DHT22;56489;53.166;10.864;2022-07-23T06:50:20;21.90;99.90
14962;DHT22;56489;53.166;10.864;2022-07-23T06:52:46;23.10;99.90
14962;DHT22;56489;53.166;10.864;2022-07-23T06:55:13;24.40;99.90
14962;DHT22;56489;53.166;10.864;2022-07-23T06:57:40;25.70;99.90
14962;DHT22;56489;53.166;10.864;2022-07-23T07:00:07;26.90;99.90
14962;DHT22;56489;53.166;10.864;2022-07-23T07:02:34;27.80;99.90
14962;DHT22;56489;53.166;10.864;2022-07-23T07:05:01;28.60;99.90
14962;DHT22;56489;53.166;10.864;2022-07-23T07:07:31;29.30;99.90
14962;DHT22;56489;53.166;10.864;2022-07-23T07:09:58;29.90;99.90
14962;DHT22;56489;53.166;10.864;2022-07-23T07:12:24;30.30;99.90
14962;DHT22;56489;53.166;10.864;2022-07-23T07:14:51;30.40;99.90
14962;DHT22;56489;53.166;10.864;2022-07-23T07:17:17;30.80;99.90
14962;DHT22;56489;53.166;10.864;2022-07-23T07:19:44;31.30;99.90
14962;DHT22;56489;53.166;10.864;2022-07-23T07:22:11;31.90;98.50
14962;DHT22;56489;53.166;10.864;2022-07-23T07:24:37;32.30;97.50
14962;DHT22;56489;53.166;10.864;2022-07-23T07:27:04;32.70;94.70
14962;DHT22;56489;53.166;10.864;2022-07-23T07:29:31;32.70;93.80
14962;DHT22;56489;53.166;10.864;2022-07-23T07:31:57;32.50;92.60
14962;DHT22;56489;53.166;10.864;2022-07-23T07:34:24;32.30;92.70
14962;DHT22;56489;53.166;10.864;2022-07-23T07:36:51;32.40;91.50
14962;DHT22;56489;53.166;10.864;2022-07-23T07:39:17;32.40;91.40
14962;DHT22;56489;53.166;10.864;2022-07-23T07:41:44;32.40;91.80
14962;DHT22;56489;53.166;10.864;2022-07-23T07:44:10;32.40;92.00
14962;DHT22;56489;53.166;10.864;2022-07-23T07:46:37;32.80;91.40
14962;DHT22;56489;53.166;10.864;2022-07-23T07:49:04;33.10;90.90
14962;DHT22;56489;53.166;10.864;2022-07-23T07:51:31;32.90;90.30
14962;DHT22;56489;53.166;10.864;2022-07-23T07:54:00;32.40;89.50
14962;DHT22;56489;53.166;10.864;2022-07-23T07:56:27;30.90;88.80
14962;DHT22;56489;53.166;10.864;2022-07-23T07:58:54;29.80;91.20
14962;DHT22;56489;53.166;10.864;2022-07-23T08:01:20;29.70;90.70
14962;DHT22;56489;53.166;10.864;2022-07-23T08:03:47;30.00;91.80
14962;DHT22;56489;53.166;10.864;2022-07-23T08:06:14;30.20;91.70
14962;DHT22;56489;53.166;10.864;2022-07-23T08:08:41;30.50;90.50
14962;DHT22;56489;53.166;10.864;2022-07-23T08:11:07;30.90;90.70
14962;DHT22;56489;53.166;10.864;2022-07-23T08:13:34;30.70;89.60
14962;DHT22;56489;53.166;10.864;2022-07-23T08:16:01;30.30;89.20
14962;DHT22;56489;53.166;10.864;2022-07-23T08:18:27;29.50;90.10
14962;DHT22;56489;53.166;10.864;2022-07-23T08:20:54;28.50;91.10
14962;DHT22;56489;53.166;10.864;2022-07-23T08:23:20;27.60;92.30
14962;DHT22;56489;53.166;10.864;2022-07-23T08:25:53;26.50;92.30
14962;DHT22;56489;53.166;10.864;2022-07-23T08:28:20;25.40;93.00
14962;DHT22;56489;53.166;10.864;2022-07-23T08:30:46;24.60;94.60
14962;DHT22;56489;53.166;10.864;2022-07-23T08:33:15;24.10;96.20
14962;DHT22;56489;53.166;10.864;2022-07-23T08:35:59;23.80;97.70
14962;DHT22;56489;53.166;10.864;2022-07-23T08:38:26;23.50;97.80
14962;DHT22;56489;53.166;10.864;2022-07-23T08:40:55;23.20;98.50
14962;DHT22;56489;53.166;10.864;2022-07-23T08:43:25;23.10;99.20
14962;DHT22;56489;53.166;10.864;2022-07-23T08:45:54;22.80;98.80
14962;DHT22;56489;53.166;10.864;2022-07-23T08:48:25;22.70;99.70
14962;DHT22;56489;53.166;10.864;2022-07-23T08:50:55;22.80;99.90
14962;DHT22;56489;53.166;10.864;2022-07-23T08:53:25;22.70;99.90
14962;DHT22;56489;53.166;10.864;2022-07-23T08:55:58;22.70;99.90
14962;DHT22;56489;53.166;10.864;2022-07-23T08:58:25;22.70;99.90
14962;DHT22;56489;53.166;10.864;2022-07-23T09:00:55;22.50;99.90
14962;DHT22;56489;53.166;10.864;2022-07-23T09:03:25;22.20;99.90
14962;DHT22;56489;53.166;10.864;2022-07-23T09:05:53;22.00;99.90
14962;DHT22;56489;53.166;10.864;2022-07-23T09:08:21;21.80;99.90
14962;DHT22;56489;53.166;10.864;2022-07-23T09:10:59;21.70;99.90
14962;DHT22;56489;53.166;10.864;2022-07-23T09:13:40;21.70;99.90
14962;DHT22;56489;53.166;10.864;2022-07-23T09:16:29;21.70;99.90
14962;DHT22;56489;53.166;10.864;2022-07-23T09:19:02;21.80;99.90
14962;DHT22;56489;53.166;10.864;2022-07-23T09:21:38;21.80;99.90
14962;DHT22;56489;53.166;10.864;2022-07-23T09:24:07;21.80;99.90
14962;DHT22;56489;53.166;10.864;2022-07-23T09:26:42;21.90;99.90
14962;DHT22;56489;53.166;10.864;2022-07-23T09:31:45;21.90;99.90
14962;DHT22;56489;53.166;10.864;2022-07-23T09:36:43;21.70;99.90
14962;DHT22;56489;53.166;10.864;2022-07-23T09:39:11;21.70;99.90
14962;DHT22;56489;53.166;10.864;2022-07-23T09:41:41;21.90;99.90
14962;DHT22;56489;53.166;10.864;2022-07-23T09:44:17;22.00;99.90
14962;DHT22;56489;53.166;10.864;2022-07-23T09:46:49;22.10;99.90
14962;DHT22;56489;53.166;10.864;2022-07-23T09:49:19;22.20;99.90
14962;DHT22;56489;53.166;10.864;2022-07-23T09:51:55;22.40;99.90
14962;DHT22;56489;53.166;10.864;2022-07-23T09:54:28;22.50;99.90
14962;DHT22;56489;53.166;10.864;2022-07-23T09:56:58;22.50;99.90
14962;DHT22;56489;53.166;10.864;2022-07-23T09:59:28;22.50;99.90
14962;DHT22;56489;53.166;10.864;2022-07-23T10:01:57;22.50;99.90
14962;DHT22;56489;53.166;10.864;2022-07-23T10:04:28;22.60;99.90
14962;DHT22;56489;53.166;10.864;2022-07-23T10:06:58;22.70;99.90
14962;DHT22;56489;53.166;10.864;2022-07-23T10:09:34;22.70;99.90
14962;DHT22;56489;53.166;10.864;2022-07-23T10:12:03;22.80;99.90
14962;DHT22;56489;53.166;10.864;2022-07-23T10:14:42;22.90;99.90
14962;DHT22;56489;53.166;10.864;2022-07-23T10:17:09;22.90;99.90
14962;DHT22;56489;53.166;10.864;2022-07-23T10:19:36;22.80;99.90
14962;DHT22;56489;53.166;10.864;2022-07-23T10:22:03;22.90;99.90
14962;DHT22;56489;53.166;10.864;2022-07-23T10:24:47;22.80;99.90
14962;DHT22;56489;53.166;10.864;2022-07-23T10:30:02;22.60;99.90
14962;DHT22;56489;53.166;10.864;2022-07-23T10:35:19;22.50;99.90
14962;DHT22;56489;53.166;10.864;2022-07-23T10:37:53;22.50;99.90
14962;DHT22;56489;53.166;10.864;2022-07-23T10:40:22;22.40;99.90
14962;DHT22;56489;53.166;10.864;2022-07-23T10:42:50;22.30;99.90
14962;DHT22;56489;53.166;10.864;2022-07-23T10:45:32;22.30;99.90
14962;DHT22;56489;53.166;10.864;2022-07-23T10:48:14;22.40;99.90
14962;DHT22;56489;53.166;10.864;2022-07-23T10:50:41;22.60;99.90
14962;DHT22;56489;53.166;10.864;2022-07-23T10:53:17;22.70;99.90
14962;DHT22;56489;53.166;10.864;2022-07-23T10:55:50;22.70;99.90
14962;DHT22;56489;53.166;10.864;2022-07-23T10:58:22;22.60;99.90
14962;DHT22;56489;53.166;10.864;2022-07-23T11:00:50;22.50;99.90
14962;DHT22;56489;53.166;10.864;2022-07-23T11:03:34;22.50;99.90
14962;DHT22;56489;53.166;10.864;2022-07-23T11:06:05;22.40;99.90
14962;DHT22;56489;53.166;10.864;2022-07-23T11:08:32;22.40;99.90
14962;DHT22;56489;53.166;10.864;2022-07-23T11:13:35;22.60;99.90
14962;DHT22;56489;53.166;10.864;2022-07-23T11:16:07;22.70;99.90
14962;DHT22;56489;53.166;10.864;2022-07-23T11:37:10;23.10;99.90
14962;DHT22;56489;53.166;10.864;2022-07-23T11:39:37;23.10;99.90
14962;DHT22;56489;53.166;10.864;2022-07-23T11:42:07;23.00;99.90
14962;DHT22;56489;53.166;10.864;2022-07-23T11:44:36;23.00;99.90
14962;DHT22;56489;53.166;10.864;2022-07-23T11:47:08;23.00;99.90
14962;DHT22;56489;53.166;10.864;2022-07-23T11:49:35;23.00;99.90
14962;DHT22;56489;53.166;10.864;2022-07-23T11:52:06;22.80;99.90
14962;DHT22;56489;53.166;10.864;2022-07-23T11:54:35;22.70;99.90
14962;DHT22;56489;53.166;10.864;2022-07-23T11:57:06;22.50;99.90
14962;DHT22;56489;53.166;10.864;2022-07-23T11:59:33;22.40;99.90
14962;DHT22;56489;53.166;10.864;2022-07-23T12:02:06;22.50;99.90
14962;DHT22;56489;53.166;10.864;2022-07-23T12:04:47;22.50;99.90
14962;DHT22;56489;53.166;10.864;2022-07-23T12:07:37;22.60;99.90
14962;DHT22;56489;53.166;10.864;2022-07-23T12:10:26;22.70;99.90
14962;DHT22;56489;53.166;10.864;2022-07-23T12:13:01;22.80;99.90
14962;DHT22;56489;53.166;10.864;2022-07-23T12:15:40;22.80;99.90
14962;DHT22;56489;53.166;10.864;2022-07-23T12:18:09;22.90;99.80
14962;DHT22;56489;53.166;10.864;2022-07-23T12:20:42;23.00;99.60
14962;DHT22;56489;53.166;10.864;2022-07-23T12:23:11;23.10;99.80
14962;DHT22;56489;53.166;10.864;2022-07-23T12:25:46;23.20;99.90
14962;DHT22;56489;53.166;10.864;2022-07-23T12:28:20;23.00;99.10
14962;DHT22;56489;53.166;10.864;2022-07-23T12:30:51;22.80;99.90
14962;DHT22;56489;53.166;10.864;2022-07-23T12:33:27;22.70;99.80
14962;DHT22;56489;53.166;10.864;2022-07-23T12:36:03;22.70;99.90
14962;DHT22;56489;53.166;10.864;2022-07-23T12:38:39;22.80;99.90
14962;DHT22;56489;53.166;10.864;2022-07-23T12:41:05;22.90;99.90
14962;DHT22;56489;53.166;10.864;2022-07-23T12:43:38;22.90;99.90
14962;DHT22;56489;53.166;10.864;2022-07-23T12:46:10;22.80;99.90
14962;DHT22;56489;53.166;10.864;2022-07-23T12:48:51;22.80;99.90
14962;DHT22;56489;53.166;10.864;2022-07-23T12:51:23;22.70;99.90
14962;DHT22;56489;53.166;10.864;2022-07-23T12:53:57;22.70;99.90
14962;DHT22;56489;53.166;10.864;2022-07-23T12:56:48;22.60;99.90
14962;DHT22;56489;53.166;10.864;2022-07-23T12:59:16;22.60;99.90
14962;DHT22;56489;53.166;10.864;2022-07-23T13:01:45;22.60;99.90
14962;DHT22;56489;53.166;10.864;2022-07-23T13:04:22;22.60;99.90
14962;DHT22;56489;53.166;10.864;2022-07-23T13:06:59;22.80;99.90
14962;DHT22;56489;53.166;10.864;2022-07-23T13:09:32;23.00;99.90
14962;DHT22;56489;53.166;10.864;2022-07-23T13:12:07;23.00;99.90
14962;DHT22;56489;53.166;10.864;2022-07-23T13:14:36;23.00;99.90
14962;DHT22;56489;53.166;10.864;2022-07-23T13:17:03;23.00;99.90
14962;DHT22;56489;53.166;10.864;2022-07-23T13:19:32;23.10;99.90
14962;DHT22;56489;53.166;10.864;2022-07-23T13:22:00;23.10;99.90
14962;DHT22;56489;53.166;10.864;2022-07-23T13:24:34;23.20;99.80
14962;DHT22;56489;53.166;10.864;2022-07-23T13:27:04;23.10;98.90
14962;DHT22;56489;53.166;10.864;2022-07-23T13:29:33;23.20;98.80
14962;DHT22;56489;53.166;10.864;2022-07-23T13:32:02;23.10;99.00
14962;DHT22;56489;53.166;10.864;2022-07-23T13:34:36;23.20;98.30
14962;DHT22;56489;53.166;10.864;2022-07-23T13:37:05;23.20;98.90
14962;DHT22;56489;53.166;10.864;2022-07-23T13:39:31;23.40;99.30
14962;DHT22;56489;53.166;10.864;2022-07-23T13:42:03;23.40;98.70
14962;DHT22;56489;53.166;10.864;2022-07-23T13:44:32;23.40;99.60
14962;DHT22;56489;53.166;10.864;2022-07-23T13:46:59;23.40;99.90
14962;DHT22;56489;53.166;10.864;2022-07-23T13:49:26;23.40;99.20
14962;DHT22;56489;53.166;10.864;2022-07-23T13:51:53;23.30;98.60
14962;DHT22;56489;53.166;10.864;2022-07-23T13:54:20;23.10;98.80
14962;DHT22;56489;53.166;10.864;2022-07-23T13:56:46;22.90;99.20
14962;DHT22;56489;53.166;10.864;2022-07-23T13:59:13;22.70;99.30
14962;DHT22;56489;53.166;10.864;2022-07-23T14:01:40;22.60;99.90
14962;DHT22;56489;53.166;10.864;2022-07-23T14:04:27;22.50;99.90
14962;DHT22;56489;53.166;10.864;2022-07-23T14:06:54;22.50;99.60
14962;DHT22;56489;53.166;10.864;2022-07-23T14:09:20;22.40;99.20
14962;DHT22;56489;53.166;10.864;2022-07-23T14:11:47;22.30;99.60
14962;DHT22;56489;53.166;10.864;2022-07-23T14:14:14;22.30;99.60
14962;DHT22;56489;53.166;10.864;2022-07-23T14:16:41;22.40;99.30
14962;DHT22;56489;53.166;10.864;2022-07-23T14:19:07;22.40;99.30
14962;DHT22;56489;53.166;10.864;2022-07-23T14:21:34;22.40;99.40
14962;DHT22;56489;53.166;10.864;2022-07-23T14:24:01;22.50;99.50
14962;DHT22;56489;53.166;10.864;2022-07-23T14:26:28;22.40;99.70
14962;DHT22;56489;53.166;10.864;2022-07-23T14:28:55;22.40;99.90
14962;DHT22;56489;53.166;10.864;2022-07-23T14:31:23;22.30;99.10
14962;DHT22;56489;53.166;10.864;2022-07-23T14:33:51;22.20;99.40
14962;DHT22;56489;53.166;10.864;2022-07-23T14:36:19;22.10;99.50
14962;DHT22;56489;53.166;10.864;2022-07-23T14:38:46;22.00;99.90
14962;DHT22;56489;53.166;10.864;2022-07-23T14:41:13;21.90;99.90
14962;DHT22;56489;53.166;10.864;2022-07-23T14:43:41;21.80;99.90
14962;DHT22;56489;53.166;10.864;2022-07-23T14:46:08;21.70;99.60
14962;DHT22;56489;53.166;10.864;2022-07-23T14:48:36;21.60;99.60
14962;DHT22;56489;53.166;10.864;2022-07-23T14:51:03;21.50;99.80
14962;DHT22;56489;53.166;10.864;2022-07-23T14:53:30;21.50;99.90
14962;DHT22;56489;53.166;10.864;2022-07-23T14:55:57;21.60;99.50
14962;DHT22;56489;53.166;10.864;2022-07-23T14:58:24;21.50;99.40
14962;DHT22;56489;53.166;10.864;2022-07-23T15:00:51;21.90;99.90
14962;DHT22;56489;53.166;10.864;2022-07-23T15:03:18;21.50;99.90
14962;DHT22;56489;53.166;10.864;2022-07-23T15:05:45;21.40;99.90
14962;DHT22;56489;53.166;10.864;2022-07-23T15:08:12;21.50;99.90
14962;DHT22;56489;53.166;10.864;2022-07-23T15:10:38;21.60;99.80
14962;DHT22;56489;53.166;10.864;2022-07-23T15:13:05;21.60;99.90
14962;DHT22;56489;53.166;10.864;2022-07-23T15:15:34;21.60;99.90
14962;DHT22;56489;53.166;10.864;2022-07-23T15:18:00;21.60;99.90
14962;DHT22;56489;53.166;10.864;2022-07-23T15:20:27;21.60;99.90
14962;DHT22;56489;53.166;10.864;2022-07-23T15:23:05;21.70;99.90
14962;DHT22;56489;53.166;10.864;2022-07-23T15:25:34;21.80;99.90
14962;DHT22;56489;53.166;10.864;2022-07-23T15:28:01;21.80;99.90
14962;DHT22;56489;53.166;10.864;2022-07-23T15:30:29;21.70;99.90
14962;DHT22;56489;53.166;10.864;2022-07-23T15:32:55;21.60;99.90
14962;DHT22;56489;53.166;10.864;2022-07-23T15:35:24;21.70;99.90
14962;DHT22;56489;53.166;10.864;2022-07-23T15:37:50;21.70;99.90
14962;DHT22;56489;53.166;10.864;2022-07-23T15:40:17;21.70;99.90
14962;DHT22;56489;53.166;10.864;2022-07-23T15:42:44;21.70;99.90
14962;DHT22;56489;53.166;10.864;2022-07-23T15:45:11;21.70;99.90
14962;DHT22;56489;53.166;10.864;2022-07-23T15:47:41;21.70;99.90
14962;DHT22;56489;53.166;10.864;2022-07-23T15:50:08;21.70;99.90
14962;DHT22;56489;53.166;10.864;2022-07-23T15:52:36;21.80;99.90
14962;DHT22;56489;53.166;10.864;2022-07-23T15:55:04;21.90;99.90